HVN971 VVNB-VIDP
Flight info
| Callsign | HVN971 |
|---|---|
| Flight time | 4h 0m |
| Altitude | 34000 |
| Route | HUVAN3B HUVAN DCT LINSO/N0467F340 DCT VENUM DCT POLOT DCT ELPUR DCT IPLAS/N0469F360 DCT OVLAP DCT VEBRU DCT APIPU DCT KEVOD DCT JAL JAL6Q |
| Aircraft | A21N/M-SDE3FGHIRWY/LB1 |
Departure
| Time | 2026-05-06 14:41 |
|---|---|
| Airport | Noi Bai International Airport (VVNB) |
Arrival
| Time | 2026-05-06 18:42 |
|---|---|
| Airport | Indira Gandhi International Airport (VIDP) |
| Time | Latitude | Longitude | Altitude | Speed | Heading |
|---|---|---|---|---|---|
| 2026-05-06 14:29 | 21.21785 | 105.79720 | 54 ft | 0 kts | 197° |
| 2026-05-06 14:33 | 21.21789 | 105.79722 | 54 ft | 3 kts | 197° |
| 2026-05-06 14:33 | 21.21814 | 105.79731 | 53 ft | 4 kts | 202° |
| 2026-05-06 14:33 | 21.21839 | 105.79743 | 49 ft | 5 kts | 210° |
| 2026-05-06 14:34 | 21.21861 | 105.79760 | 49 ft | 5 kts | 229° |
| 2026-05-06 14:34 | 21.21870 | 105.79781 | 52 ft | 3 kts | 282° |
| 2026-05-06 14:34 | 21.21870 | 105.79784 | 53 ft | 0 kts | 287° |
| 2026-05-06 14:36 | 21.21875 | 105.79766 | 52 ft | 4 kts | 287° |
| 2026-05-06 14:36 | 21.21888 | 105.79722 | 54 ft | 8 kts | 287° |
| 2026-05-06 14:37 | 21.21907 | 105.79657 | 54 ft | 11 kts | 287° |
| 2026-05-06 14:37 | 21.21932 | 105.79570 | 54 ft | 14 kts | 287° |
| 2026-05-06 14:37 | 21.21963 | 105.79463 | 54 ft | 16 kts | 287° |
| 2026-05-06 14:37 | 21.21999 | 105.79340 | 54 ft | 18 kts | 287° |
| 2026-05-06 14:38 | 21.22038 | 105.79207 | 51 ft | 19 kts | 287° |
| 2026-05-06 14:38 | 21.22095 | 105.79147 | 54 ft | 13 kts | 351° |
| 2026-05-06 14:38 | 21.22164 | 105.79092 | 55 ft | 14 kts | 295° |
| 2026-05-06 14:38 | 21.22196 | 105.78991 | 52 ft | 15 kts | 288° |
| 2026-05-06 14:39 | 21.22228 | 105.78882 | 52 ft | 16 kts | 287° |
| 2026-05-06 14:39 | 21.22261 | 105.78765 | 55 ft | 17 kts | 286° |
| 2026-05-06 14:39 | 21.22297 | 105.78642 | 53 ft | 18 kts | 297° |
| 2026-05-06 14:39 | 21.22412 | 105.78630 | 56 ft | 19 kts | 20° |
| 2026-05-06 14:40 | 21.22461 | 105.78675 | 53 ft | 9 kts | 73° |
| 2026-05-06 14:40 | 21.22443 | 105.78735 | 55 ft | 10 kts | 120° |
| 2026-05-06 14:40 | 21.22409 | 105.78839 | 55 ft | 33 kts | 109° |
| 2026-05-06 14:40 | 21.22270 | 105.79326 | 55 ft | 102 kts | 107° |
| 2026-05-06 14:41 | 21.22004 | 105.80248 | 54 ft | 154 kts | 107° |
| 2026-05-06 14:41 | 21.21782 | 105.81019 | 189 ft | 165 kts | 109° |
| 2026-05-06 14:41 | 21.21334 | 105.82571 | 841 ft | 168 kts | 110° |
| 2026-05-06 14:41 | 21.20966 | 105.83770 | 1344 ft | 173 kts | 113° |
| 2026-05-06 14:42 | 21.20581 | 105.85042 | 1746 ft | 185 kts | 112° |
| 2026-05-06 14:42 | 21.20200 | 105.86399 | 2242 ft | 194 kts | 111° |
| 2026-05-06 14:42 | 21.19946 | 105.87327 | 2565 ft | 198 kts | 111° |
| 2026-05-06 14:42 | 21.19554 | 105.88762 | 3065 ft | 203 kts | 111° |
| 2026-05-06 14:43 | 21.19417 | 105.90313 | 3440 ft | 223 kts | 84° |
| 2026-05-06 14:43 | 21.20133 | 105.91892 | 3521 ft | 258 kts | 49° |
| 2026-05-06 14:43 | 21.21710 | 105.92950 | 3776 ft | 281 kts | 14° |
| 2026-05-06 14:43 | 21.23663 | 105.92959 | 4297 ft | 286 kts | 343° |
| 2026-05-06 14:44 | 21.25430 | 105.91934 | 4621 ft | 297 kts | 314° |
| 2026-05-06 14:44 | 21.26820 | 105.90228 | 4880 ft | 311 kts | 298° |
| 2026-05-06 14:44 | 21.27542 | 105.88037 | 5112 ft | 323 kts | 274° |
| 2026-05-06 14:45 | 21.27212 | 105.83049 | 5544 ft | 350 kts | 262° |
| 2026-05-06 14:45 | 21.26935 | 105.80377 | 5739 ft | 361 kts | 263° |
| 2026-05-06 14:45 | 21.26681 | 105.77718 | 6083 ft | 364 kts | 263° |
| 2026-05-06 14:45 | 21.26436 | 105.75011 | 6493 ft | 365 kts | 264° |
| 2026-05-06 14:46 | 21.26198 | 105.72295 | 6900 ft | 367 kts | 264° |
| 2026-05-06 14:46 | 21.25961 | 105.69560 | 7313 ft | 370 kts | 264° |
| 2026-05-06 14:46 | 21.25722 | 105.66801 | 7769 ft | 372 kts | 264° |
| 2026-05-06 14:46 | 21.25482 | 105.64035 | 8228 ft | 375 kts | 264° |
| 2026-05-06 14:47 | 21.25239 | 105.61229 | 8711 ft | 378 kts | 265° |
| 2026-05-06 14:47 | 21.24996 | 105.58412 | 9177 ft | 380 kts | 265° |
| 2026-05-06 14:47 | 21.24750 | 105.55581 | 9647 ft | 383 kts | 265° |
| 2026-05-06 14:47 | 21.24502 | 105.52725 | 10045 ft | 386 kts | 265° |
| 2026-05-06 14:48 | 21.24252 | 105.49855 | 10420 ft | 388 kts | 265° |
| 2026-05-06 14:48 | 21.24001 | 105.46965 | 10787 ft | 390 kts | 265° |
| 2026-05-06 14:48 | 21.23746 | 105.44056 | 11171 ft | 393 kts | 265° |
| 2026-05-06 14:48 | 21.23493 | 105.41143 | 11563 ft | 395 kts | 265° |
| 2026-05-06 14:49 | 21.23234 | 105.38195 | 11939 ft | 397 kts | 265° |
| 2026-05-06 14:49 | 21.22974 | 105.35241 | 12282 ft | 399 kts | 265° |
| 2026-05-06 14:49 | 21.22716 | 105.32309 | 12620 ft | 401 kts | 265° |
| 2026-05-06 14:49 | 21.22452 | 105.29320 | 12986 ft | 404 kts | 265° |
| 2026-05-06 14:50 | 21.22186 | 105.26315 | 13377 ft | 407 kts | 265° |
| 2026-05-06 14:50 | 21.21922 | 105.23340 | 13739 ft | 409 kts | 265° |
| 2026-05-06 14:50 | 21.21646 | 105.20242 | 14077 ft | 411 kts | 265° |
| 2026-05-06 14:50 | 21.21374 | 105.17185 | 14391 ft | 413 kts | 265° |
| 2026-05-06 14:51 | 21.21099 | 105.14107 | 14734 ft | 416 kts | 265° |
| 2026-05-06 14:51 | 21.20864 | 105.11007 | 15119 ft | 418 kts | 268° |
| 2026-05-06 14:51 | 21.20851 | 105.07883 | 15542 ft | 420 kts | 271° |
| 2026-05-06 14:51 | 21.20878 | 105.04735 | 15924 ft | 422 kts | 271° |
| 2026-05-06 14:52 | 21.20913 | 105.01577 | 16245 ft | 424 kts | 271° |
| 2026-05-06 14:52 | 21.20945 | 104.98441 | 16558 ft | 427 kts | 271° |
| 2026-05-06 14:52 | 21.20975 | 104.95257 | 16879 ft | 429 kts | 271° |
| 2026-05-06 14:52 | 21.21001 | 104.92056 | 17179 ft | 431 kts | 271° |
| 2026-05-06 14:53 | 21.21028 | 104.88830 | 17492 ft | 433 kts | 271° |
| 2026-05-06 14:53 | 21.21054 | 104.85596 | 17785 ft | 435 kts | 271° |
| 2026-05-06 14:53 | 21.21078 | 104.82346 | 18060 ft | 438 kts | 271° |
| 2026-05-06 14:53 | 21.21103 | 104.79074 | 18335 ft | 439 kts | 271° |
| 2026-05-06 14:54 | 21.21127 | 104.75800 | 18588 ft | 440 kts | 271° |
| 2026-05-06 14:54 | 21.21150 | 104.72509 | 18823 ft | 442 kts | 271° |
| 2026-05-06 14:54 | 21.21174 | 104.69209 | 19054 ft | 444 kts | 271° |
| 2026-05-06 14:54 | 21.21197 | 104.65894 | 19317 ft | 446 kts | 271° |
| 2026-05-06 14:55 | 21.21218 | 104.62561 | 19588 ft | 447 kts | 271° |
| 2026-05-06 14:55 | 21.21240 | 104.59227 | 19863 ft | 449 kts | 271° |
| 2026-05-06 14:55 | 21.21261 | 104.55865 | 20108 ft | 450 kts | 271° |
| 2026-05-06 14:55 | 21.21279 | 104.52551 | 20360 ft | 451 kts | 271° |
| 2026-05-06 14:56 | 21.21298 | 104.49176 | 20606 ft | 453 kts | 271° |
| 2026-05-06 14:56 | 21.21317 | 104.45792 | 20910 ft | 455 kts | 271° |
| 2026-05-06 14:56 | 21.21333 | 104.42388 | 21245 ft | 457 kts | 271° |
| 2026-05-06 14:56 | 21.21352 | 104.38975 | 21599 ft | 459 kts | 271° |
| 2026-05-06 14:57 | 21.21371 | 104.35550 | 21928 ft | 461 kts | 271° |
| 2026-05-06 14:57 | 21.21388 | 104.32097 | 22209 ft | 463 kts | 271° |
| 2026-05-06 14:57 | 21.21405 | 104.28687 | 22486 ft | 464 kts | 271° |
| 2026-05-06 14:57 | 21.21420 | 104.25173 | 22750 ft | 466 kts | 270° |
| 2026-05-06 14:58 | 21.21434 | 104.21741 | 22986 ft | 468 kts | 270° |
| 2026-05-06 14:58 | 21.21449 | 104.18257 | 23185 ft | 469 kts | 270° |
| 2026-05-06 14:58 | 21.21462 | 104.14748 | 23390 ft | 471 kts | 270° |
| 2026-05-06 14:58 | 21.21473 | 104.11227 | 23586 ft | 473 kts | 270° |
| 2026-05-06 14:59 | 21.21495 | 104.07703 | 23764 ft | 474 kts | 272° |
| 2026-05-06 14:59 | 21.21845 | 104.04189 | 23926 ft | 474 kts | 281° |
| 2026-05-06 14:59 | 21.22812 | 104.00814 | 24061 ft | 476 kts | 292° |
| 2026-05-06 14:59 | 21.24198 | 103.97589 | 24216 ft | 476 kts | 295° |
| 2026-05-06 15:00 | 21.25642 | 103.94395 | 24403 ft | 476 kts | 295° |
| 2026-05-06 15:00 | 21.27080 | 103.91198 | 24583 ft | 475 kts | 295° |
| 2026-05-06 15:00 | 21.28504 | 103.88008 | 24770 ft | 475 kts | 295° |
| 2026-05-06 15:00 | 21.29919 | 103.84813 | 24971 ft | 474 kts | 294° |
| 2026-05-06 15:01 | 21.31331 | 103.81617 | 25161 ft | 473 kts | 294° |
| 2026-05-06 15:01 | 21.32735 | 103.78435 | 25364 ft | 473 kts | 294° |
| 2026-05-06 15:01 | 21.34144 | 103.75246 | 25562 ft | 472 kts | 294° |
| 2026-05-06 15:01 | 21.35544 | 103.72070 | 25762 ft | 471 kts | 294° |
| 2026-05-06 15:02 | 21.36946 | 103.68888 | 25964 ft | 471 kts | 294° |
| 2026-05-06 15:02 | 21.38348 | 103.65708 | 26175 ft | 470 kts | 294° |
| 2026-05-06 15:02 | 21.39743 | 103.62544 | 26375 ft | 469 kts | 294° |
| 2026-05-06 15:02 | 21.41135 | 103.59381 | 26594 ft | 468 kts | 294° |
| 2026-05-06 15:03 | 21.42524 | 103.56224 | 26788 ft | 468 kts | 294° |
| 2026-05-06 15:03 | 21.43912 | 103.53067 | 26988 ft | 468 kts | 294° |
| 2026-05-06 15:03 | 21.45301 | 103.49908 | 27204 ft | 467 kts | 294° |
| 2026-05-06 15:03 | 21.46682 | 103.46761 | 27420 ft | 466 kts | 294° |
| 2026-05-06 15:04 | 21.48063 | 103.43609 | 27608 ft | 466 kts | 294° |
| 2026-05-06 15:04 | 21.49440 | 103.40469 | 27793 ft | 465 kts | 294° |
| 2026-05-06 15:04 | 21.50799 | 103.37372 | 27996 ft | 464 kts | 294° |
| 2026-05-06 15:04 | 21.52175 | 103.34235 | 28230 ft | 463 kts | 294° |
| 2026-05-06 15:05 | 21.53539 | 103.31119 | 28598 ft | 458 kts | 294° |
| 2026-05-06 15:05 | 21.54891 | 103.28026 | 28938 ft | 455 kts | 294° |
| 2026-05-06 15:05 | 21.56233 | 103.24961 | 29234 ft | 453 kts | 293° |
| 2026-05-06 15:05 | 21.57571 | 103.21897 | 29505 ft | 452 kts | 293° |
| 2026-05-06 15:06 | 21.58907 | 103.18842 | 29749 ft | 450 kts | 293° |
| 2026-05-06 15:06 | 21.60236 | 103.15799 | 29976 ft | 450 kts | 293° |
| 2026-05-06 15:06 | 21.61564 | 103.12749 | 30190 ft | 449 kts | 293° |
| 2026-05-06 15:06 | 21.62888 | 103.09713 | 30391 ft | 448 kts | 293° |
| 2026-05-06 15:07 | 21.64206 | 103.06688 | 30587 ft | 447 kts | 293° |
| 2026-05-06 15:07 | 21.65522 | 103.03665 | 30772 ft | 446 kts | 293° |
| 2026-05-06 15:07 | 21.66834 | 103.00650 | 30945 ft | 445 kts | 293° |
| 2026-05-06 15:07 | 21.68128 | 102.97676 | 31140 ft | 444 kts | 293° |
| 2026-05-06 15:08 | 21.69434 | 102.94672 | 31334 ft | 443 kts | 293° |
| 2026-05-06 15:08 | 21.70735 | 102.91675 | 31516 ft | 442 kts | 293° |
| 2026-05-06 15:08 | 21.72038 | 102.88672 | 31672 ft | 442 kts | 293° |
| 2026-05-06 15:08 | 21.73336 | 102.85678 | 31837 ft | 441 kts | 293° |
| 2026-05-06 15:09 | 21.74636 | 102.82680 | 32002 ft | 441 kts | 293° |
| 2026-05-06 15:09 | 21.75930 | 102.79693 | 32177 ft | 440 kts | 293° |
| 2026-05-06 15:09 | 21.77222 | 102.76709 | 32348 ft | 439 kts | 293° |
| 2026-05-06 15:09 | 21.78509 | 102.73729 | 32500 ft | 439 kts | 293° |
| 2026-05-06 15:10 | 21.79798 | 102.70751 | 32640 ft | 438 kts | 293° |
| 2026-05-06 15:10 | 21.81083 | 102.67782 | 32786 ft | 438 kts | 293° |
| 2026-05-06 15:10 | 21.82368 | 102.64809 | 32950 ft | 437 kts | 293° |
| 2026-05-06 15:10 | 21.83647 | 102.61847 | 33082 ft | 437 kts | 293° |
| 2026-05-06 15:11 | 21.84930 | 102.58880 | 33213 ft | 437 kts | 293° |
| 2026-05-06 15:11 | 21.86190 | 102.55952 | 33344 ft | 436 kts | 293° |
| 2026-05-06 15:11 | 21.87464 | 102.52990 | 33488 ft | 435 kts | 293° |
| 2026-05-06 15:11 | 21.88739 | 102.50033 | 33613 ft | 435 kts | 293° |
| 2026-05-06 15:12 | 21.90009 | 102.47085 | 33732 ft | 434 kts | 293° |
| 2026-05-06 15:12 | 21.91284 | 102.44127 | 33843 ft | 434 kts | 293° |
| 2026-05-06 15:12 | 21.92552 | 102.41176 | 33928 ft | 434 kts | 293° |
| 2026-05-06 15:13 | 21.95090 | 102.35270 | 33951 ft | 433 kts | 293° |
| 2026-05-06 15:13 | 21.97614 | 102.29389 | 33929 ft | 433 kts | 293° |
| 2026-05-06 15:14 | 22.00124 | 102.23532 | 33928 ft | 433 kts | 293° |
| 2026-05-06 15:14 | 22.02650 | 102.17630 | 33935 ft | 433 kts | 293° |
| 2026-05-06 15:15 | 22.05170 | 102.11736 | 33935 ft | 433 kts | 293° |
| 2026-05-06 15:15 | 22.07688 | 102.05839 | 33934 ft | 433 kts | 293° |
| 2026-05-06 15:16 | 22.10209 | 101.99934 | 33937 ft | 434 kts | 293° |
| 2026-05-06 15:16 | 22.12728 | 101.94025 | 33935 ft | 434 kts | 293° |
| 2026-05-06 15:17 | 22.15246 | 101.88108 | 33926 ft | 434 kts | 293° |
| 2026-05-06 15:17 | 22.17763 | 101.82187 | 33937 ft | 434 kts | 293° |
| 2026-05-06 15:18 | 22.20282 | 101.76257 | 33939 ft | 434 kts | 293° |
| 2026-05-06 15:18 | 22.22793 | 101.70334 | 33938 ft | 434 kts | 293° |
| 2026-05-06 15:19 | 22.25287 | 101.64449 | 33933 ft | 433 kts | 292° |
| 2026-05-06 15:19 | 22.27794 | 101.58524 | 33935 ft | 433 kts | 292° |
| 2026-05-06 15:20 | 22.30287 | 101.52609 | 33938 ft | 432 kts | 292° |
| 2026-05-06 15:20 | 22.32782 | 101.46696 | 33938 ft | 432 kts | 292° |
| 2026-05-06 15:21 | 22.35276 | 101.40785 | 33934 ft | 432 kts | 292° |
| 2026-05-06 15:21 | 22.37755 | 101.34896 | 33946 ft | 435 kts | 292° |
| 2026-05-06 15:22 | 22.40267 | 101.28927 | 33941 ft | 436 kts | 292° |
| 2026-05-06 15:22 | 22.42774 | 101.22952 | 33945 ft | 436 kts | 292° |
| 2026-05-06 15:23 | 22.45280 | 101.16980 | 33937 ft | 436 kts | 292° |
| 2026-05-06 15:23 | 22.47784 | 101.11002 | 33945 ft | 436 kts | 292° |
| 2026-05-06 15:24 | 22.50286 | 101.05022 | 33942 ft | 437 kts | 292° |
| 2026-05-06 15:24 | 22.52792 | 100.99023 | 33942 ft | 437 kts | 292° |
| 2026-05-06 15:25 | 22.55298 | 100.93016 | 33936 ft | 437 kts | 292° |
| 2026-05-06 15:25 | 22.57800 | 100.87012 | 33935 ft | 438 kts | 292° |
| 2026-05-06 15:26 | 22.60290 | 100.81027 | 33931 ft | 438 kts | 292° |
| 2026-05-06 15:26 | 22.62796 | 100.75006 | 33937 ft | 438 kts | 292° |
| 2026-05-06 15:27 | 22.65297 | 100.68981 | 33941 ft | 439 kts | 292° |
| 2026-05-06 15:27 | 22.67799 | 100.62949 | 33941 ft | 439 kts | 292° |
| 2026-05-06 15:28 | 22.70298 | 100.56911 | 33935 ft | 439 kts | 292° |
| 2026-05-06 15:28 | 22.72782 | 100.50907 | 33935 ft | 439 kts | 292° |
| 2026-05-06 15:29 | 22.75279 | 100.44863 | 33938 ft | 439 kts | 292° |
| 2026-05-06 15:29 | 22.77772 | 100.38820 | 33938 ft | 440 kts | 292° |
| 2026-05-06 15:30 | 22.80264 | 100.32774 | 33945 ft | 439 kts | 292° |
| 2026-05-06 15:30 | 22.82747 | 100.26743 | 33939 ft | 438 kts | 292° |
| 2026-05-06 15:31 | 22.84806 | 100.21727 | 33957 ft | 438 kts | 292° |
| 2026-05-06 15:31 | 22.87285 | 100.15681 | 33955 ft | 438 kts | 292° |
| 2026-05-06 15:32 | 22.90981 | 100.06670 | 33959 ft | 437 kts | 292° |
| 2026-05-06 15:32 | 22.93463 | 100.00600 | 33973 ft | 438 kts | 292° |
| 2026-05-06 15:33 | 22.95915 | 99.94600 | 33973 ft | 437 kts | 292° |
| 2026-05-06 15:33 | 22.98378 | 99.88573 | 33971 ft | 437 kts | 292° |
| 2026-05-06 15:34 | 23.00842 | 99.82526 | 33981 ft | 437 kts | 292° |
| 2026-05-06 15:34 | 23.03302 | 99.76488 | 33973 ft | 437 kts | 292° |
| 2026-05-06 15:35 | 23.05759 | 99.70444 | 33980 ft | 437 kts | 292° |
| 2026-05-06 15:35 | 23.08211 | 99.64409 | 33984 ft | 436 kts | 292° |
| 2026-05-06 15:36 | 23.10655 | 99.58373 | 33981 ft | 436 kts | 292° |
| 2026-05-06 15:36 | 23.13105 | 99.52334 | 33978 ft | 436 kts | 292° |
| 2026-05-06 15:37 | 23.15546 | 99.46299 | 33981 ft | 437 kts | 291° |
| 2026-05-06 15:37 | 23.17972 | 99.40293 | 33991 ft | 436 kts | 291° |
| 2026-05-06 15:38 | 23.20410 | 99.34253 | 33977 ft | 436 kts | 291° |
| 2026-05-06 15:38 | 23.22846 | 99.28206 | 33979 ft | 436 kts | 291° |
| 2026-05-06 15:39 | 23.25276 | 99.22166 | 33968 ft | 437 kts | 291° |
| 2026-05-06 15:39 | 23.27708 | 99.16115 | 33977 ft | 436 kts | 291° |
| 2026-05-06 15:40 | 23.30111 | 99.10130 | 33964 ft | 435 kts | 291° |
| 2026-05-06 15:40 | 23.32548 | 99.04045 | 33960 ft | 435 kts | 291° |
| 2026-05-06 15:41 | 23.34966 | 98.97999 | 33961 ft | 435 kts | 291° |
| 2026-05-06 15:41 | 23.37366 | 98.91955 | 33955 ft | 435 kts | 289° |
| 2026-05-06 15:42 | 23.39359 | 98.85789 | 33964 ft | 434 kts | 287° |
| 2026-05-06 15:42 | 23.41314 | 98.79579 | 33957 ft | 433 kts | 287° |
| 2026-05-06 15:43 | 23.43267 | 98.73369 | 33948 ft | 433 kts | 287° |
| 2026-05-06 15:43 | 23.45213 | 98.67168 | 33943 ft | 433 kts | 287° |
| 2026-05-06 15:44 | 23.47155 | 98.60977 | 33952 ft | 432 kts | 287° |
| 2026-05-06 15:44 | 23.49097 | 98.54786 | 33958 ft | 432 kts | 287° |
| 2026-05-06 15:45 | 23.51022 | 98.48629 | 33968 ft | 431 kts | 287° |
| 2026-05-06 15:45 | 23.52955 | 98.42445 | 33962 ft | 431 kts | 287° |
| 2026-05-06 15:46 | 23.54890 | 98.36242 | 33962 ft | 431 kts | 287° |
| 2026-05-06 15:46 | 23.56817 | 98.30048 | 33957 ft | 431 kts | 287° |
| 2026-05-06 15:47 | 23.58730 | 98.23894 | 33962 ft | 431 kts | 287° |
| 2026-05-06 15:47 | 23.60648 | 98.17712 | 33965 ft | 430 kts | 287° |
| 2026-05-06 15:48 | 23.62565 | 98.11527 | 33962 ft | 430 kts | 286° |
| 2026-05-06 15:48 | 23.64479 | 98.05340 | 33962 ft | 430 kts | 286° |
| 2026-05-06 15:49 | 23.66389 | 97.99161 | 33964 ft | 430 kts | 286° |
| 2026-05-06 15:49 | 23.68293 | 97.92986 | 33964 ft | 429 kts | 286° |
| 2026-05-06 15:50 | 23.70196 | 97.86802 | 33966 ft | 429 kts | 286° |
| 2026-05-06 15:50 | 23.72098 | 97.80618 | 33964 ft | 429 kts | 286° |
| 2026-05-06 15:51 | 23.73995 | 97.74432 | 33963 ft | 429 kts | 286° |
| 2026-05-06 15:51 | 23.75890 | 97.68244 | 33959 ft | 429 kts | 286° |
| 2026-05-06 15:52 | 23.77783 | 97.62066 | 33947 ft | 429 kts | 286° |
| 2026-05-06 15:52 | 23.79659 | 97.55910 | 33946 ft | 430 kts | 286° |
| 2026-05-06 15:53 | 23.81551 | 97.49720 | 33937 ft | 429 kts | 285° |
| 2026-05-06 15:53 | 23.83436 | 97.43534 | 33917 ft | 430 kts | 285° |
| 2026-05-06 15:54 | 23.85315 | 97.37350 | 33916 ft | 429 kts | 285° |
| 2026-05-06 15:54 | 23.87194 | 97.31160 | 33901 ft | 429 kts | 285° |
| 2026-05-06 15:55 | 23.89069 | 97.24970 | 33900 ft | 429 kts | 285° |
| 2026-05-06 15:55 | 23.90940 | 97.18787 | 33897 ft | 428 kts | 285° |
| 2026-05-06 15:56 | 23.92796 | 97.12642 | 33879 ft | 428 kts | 285° |
| 2026-05-06 15:56 | 23.94664 | 97.06452 | 33850 ft | 428 kts | 285° |
| 2026-05-06 15:57 | 23.96526 | 97.00261 | 33852 ft | 428 kts | 285° |
| 2026-05-06 15:57 | 23.98389 | 96.94070 | 33839 ft | 428 kts | 285° |
| 2026-05-06 15:58 | 24.00247 | 96.87872 | 33846 ft | 428 kts | 285° |
| 2026-05-06 15:58 | 24.02102 | 96.81691 | 33854 ft | 428 kts | 285° |
| 2026-05-06 15:59 | 24.03940 | 96.75541 | 33837 ft | 428 kts | 285° |
| 2026-05-06 15:59 | 24.05787 | 96.69355 | 33832 ft | 428 kts | 284° |
| 2026-05-06 16:00 | 24.07634 | 96.63161 | 33835 ft | 428 kts | 284° |
| 2026-05-06 16:00 | 24.09478 | 96.56968 | 33832 ft | 428 kts | 284° |
| 2026-05-06 16:01 | 24.11323 | 96.50764 | 33832 ft | 428 kts | 284° |
| 2026-05-06 16:01 | 24.13166 | 96.44555 | 33834 ft | 428 kts | 284° |
| 2026-05-06 16:02 | 24.15003 | 96.38354 | 33836 ft | 428 kts | 284° |
| 2026-05-06 16:02 | 24.16839 | 96.32147 | 33836 ft | 428 kts | 284° |
| 2026-05-06 16:03 | 24.18669 | 96.25948 | 33841 ft | 428 kts | 284° |
| 2026-05-06 16:03 | 24.20485 | 96.19782 | 33844 ft | 428 kts | 284° |
| 2026-05-06 16:04 | 24.22310 | 96.13577 | 33851 ft | 428 kts | 284° |
| 2026-05-06 16:04 | 24.24131 | 96.07379 | 33854 ft | 427 kts | 284° |
| 2026-05-06 16:05 | 24.25951 | 96.01171 | 33859 ft | 427 kts | 284° |
| 2026-05-06 16:05 | 24.27767 | 95.94967 | 33867 ft | 427 kts | 284° |
| 2026-05-06 16:06 | 24.29580 | 95.88764 | 33864 ft | 427 kts | 284° |
| 2026-05-06 16:06 | 24.31389 | 95.82560 | 33863 ft | 426 kts | 284° |
| 2026-05-06 16:07 | 24.33195 | 95.76369 | 33867 ft | 427 kts | 284° |
| 2026-05-06 16:07 | 24.34998 | 95.70170 | 33861 ft | 426 kts | 284° |
| 2026-05-06 16:08 | 24.36779 | 95.64029 | 33856 ft | 426 kts | 283° |
| 2026-05-06 16:08 | 24.38578 | 95.57830 | 33860 ft | 426 kts | 283° |
| 2026-05-06 16:09 | 24.40372 | 95.51629 | 33863 ft | 427 kts | 283° |
| 2026-05-06 16:09 | 24.42165 | 95.45426 | 33860 ft | 426 kts | 283° |
| 2026-05-06 16:10 | 24.43957 | 95.39215 | 33859 ft | 426 kts | 283° |
| 2026-05-06 16:10 | 24.45739 | 95.33020 | 33847 ft | 426 kts | 283° |
| 2026-05-06 16:11 | 24.47513 | 95.26847 | 33848 ft | 427 kts | 283° |
| 2026-05-06 16:11 | 24.49292 | 95.20637 | 33845 ft | 426 kts | 283° |
| 2026-05-06 16:12 | 24.51062 | 95.14432 | 33846 ft | 426 kts | 283° |
| 2026-05-06 16:12 | 24.52831 | 95.08216 | 33848 ft | 426 kts | 283° |
| 2026-05-06 16:13 | 24.54614 | 95.02005 | 33848 ft | 426 kts | 283° |
| 2026-05-06 16:13 | 24.56394 | 94.95786 | 33844 ft | 426 kts | 283° |
| 2026-05-06 16:14 | 24.58165 | 94.89562 | 33849 ft | 427 kts | 283° |
| 2026-05-06 16:14 | 24.59933 | 94.83338 | 33855 ft | 427 kts | 283° |
| 2026-05-06 16:15 | 24.61700 | 94.77102 | 33867 ft | 427 kts | 283° |
| 2026-05-06 16:15 | 24.63456 | 94.70872 | 33869 ft | 427 kts | 283° |
| 2026-05-06 16:16 | 24.65206 | 94.64677 | 33875 ft | 427 kts | 283° |
| 2026-05-06 16:16 | 24.66970 | 94.58446 | 33888 ft | 427 kts | 283° |
| 2026-05-06 16:17 | 24.68724 | 94.52203 | 33896 ft | 427 kts | 283° |
| 2026-05-06 16:17 | 24.70460 | 94.45954 | 33913 ft | 427 kts | 283° |
| 2026-05-06 16:18 | 24.71920 | 94.40758 | 33920 ft | 427 kts | 283° |
| 2026-05-06 16:18 | 24.73670 | 94.34505 | 33932 ft | 427 kts | 283° |
| 2026-05-06 16:19 | 24.75409 | 94.28260 | 33932 ft | 427 kts | 283° |
| 2026-05-06 16:19 | 24.77158 | 94.21994 | 33947 ft | 427 kts | 283° |
| 2026-05-06 16:20 | 24.78901 | 94.15748 | 33958 ft | 427 kts | 283° |
| 2026-05-06 16:20 | 24.80628 | 94.09509 | 33965 ft | 426 kts | 283° |
| 2026-05-06 16:21 | 24.82375 | 94.03280 | 33963 ft | 425 kts | 283° |
| 2026-05-06 16:21 | 24.84116 | 93.97057 | 33971 ft | 425 kts | 283° |
| 2026-05-06 16:22 | 24.85839 | 93.90839 | 33966 ft | 424 kts | 283° |
| 2026-05-06 16:22 | 24.87557 | 93.84627 | 33964 ft | 424 kts | 283° |
| 2026-05-06 16:23 | 24.89269 | 93.78413 | 33954 ft | 425 kts | 283° |
| 2026-05-06 16:23 | 24.90977 | 93.72206 | 33971 ft | 426 kts | 283° |
| 2026-05-06 16:24 | 24.92683 | 93.65974 | 33958 ft | 425 kts | 283° |
| 2026-05-06 16:24 | 24.94382 | 93.59750 | 33971 ft | 424 kts | 283° |
| 2026-05-06 16:25 | 24.96074 | 93.53519 | 33939 ft | 425 kts | 283° |
| 2026-05-06 16:25 | 24.97773 | 93.47257 | 33936 ft | 425 kts | 283° |
| 2026-05-06 16:26 | 24.99474 | 93.41031 | 33914 ft | 424 kts | 283° |
| 2026-05-06 16:26 | 25.01161 | 93.34842 | 33926 ft | 425 kts | 283° |
| 2026-05-06 16:27 | 25.02856 | 93.28590 | 33917 ft | 425 kts | 282° |
| 2026-05-06 16:27 | 25.04548 | 93.22352 | 33910 ft | 425 kts | 282° |
| 2026-05-06 16:28 | 25.06239 | 93.16102 | 33900 ft | 426 kts | 282° |
| 2026-05-06 16:28 | 25.07939 | 93.09835 | 33894 ft | 426 kts | 282° |
| 2026-05-06 16:29 | 25.09626 | 93.03580 | 33893 ft | 425 kts | 282° |
| 2026-05-06 16:29 | 25.11306 | 92.97325 | 33892 ft | 425 kts | 282° |
| 2026-05-06 16:30 | 25.12711 | 92.92119 | 33903 ft | 426 kts | 283° |
| 2026-05-06 16:30 | 25.14698 | 92.84803 | 33899 ft | 425 kts | 282° |
| 2026-05-06 16:31 | 25.16371 | 92.78543 | 33904 ft | 426 kts | 282° |
| 2026-05-06 16:31 | 25.18038 | 92.72318 | 33905 ft | 425 kts | 282° |
| 2026-05-06 16:32 | 25.19704 | 92.66060 | 33916 ft | 425 kts | 282° |
| 2026-05-06 16:32 | 25.21731 | 92.59893 | 33914 ft | 428 kts | 287° |
| 2026-05-06 16:33 | 25.23903 | 92.53771 | 33922 ft | 427 kts | 287° |
| 2026-05-06 16:34 | 25.27145 | 92.44603 | 33925 ft | 427 kts | 287° |
| 2026-05-06 16:34 | 25.29310 | 92.38472 | 33927 ft | 428 kts | 286° |
| 2026-05-06 16:35 | 25.31465 | 92.32343 | 33927 ft | 427 kts | 286° |
| 2026-05-06 16:35 | 25.33571 | 92.26255 | 33923 ft | 425 kts | 283° |
| 2026-05-06 16:36 | 25.34641 | 92.19905 | 33941 ft | 419 kts | 275° |
| 2026-05-06 16:36 | 25.35492 | 92.13514 | 33930 ft | 420 kts | 275° |
| 2026-05-06 16:37 | 25.36374 | 92.07136 | 33934 ft | 420 kts | 275° |
| 2026-05-06 16:37 | 25.37271 | 92.00766 | 33945 ft | 419 kts | 275° |
| 2026-05-06 16:38 | 25.38160 | 91.94394 | 33937 ft | 420 kts | 275° |
| 2026-05-06 16:38 | 25.39037 | 91.88050 | 33943 ft | 420 kts | 275° |
| 2026-05-06 16:39 | 25.39923 | 91.81668 | 33952 ft | 419 kts | 275° |
| 2026-05-06 16:39 | 25.40809 | 91.75301 | 33959 ft | 418 kts | 275° |
| 2026-05-06 16:40 | 25.41687 | 91.68932 | 33947 ft | 418 kts | 275° |
| 2026-05-06 16:40 | 25.42559 | 91.62570 | 33948 ft | 418 kts | 275° |
| 2026-05-06 16:41 | 25.43423 | 91.56214 | 33937 ft | 417 kts | 275° |
| 2026-05-06 16:41 | 25.44289 | 91.49872 | 33937 ft | 417 kts | 275° |
| 2026-05-06 16:42 | 25.45156 | 91.43515 | 33943 ft | 417 kts | 275° |
| 2026-05-06 16:42 | 25.46023 | 91.37176 | 33933 ft | 416 kts | 275° |
| 2026-05-06 16:43 | 25.46878 | 91.30880 | 33927 ft | 416 kts | 275° |
| 2026-05-06 16:43 | 25.47723 | 91.24553 | 33926 ft | 415 kts | 275° |
| 2026-05-06 16:44 | 25.48568 | 91.18232 | 33909 ft | 415 kts | 275° |
| 2026-05-06 16:44 | 25.49418 | 91.11906 | 33906 ft | 415 kts | 275° |
| 2026-05-06 16:45 | 25.50264 | 91.05572 | 33901 ft | 415 kts | 275° |
| 2026-05-06 16:45 | 25.51104 | 90.99248 | 33898 ft | 415 kts | 275° |
| 2026-05-06 16:46 | 25.51942 | 90.92932 | 33891 ft | 415 kts | 275° |
| 2026-05-06 16:46 | 25.52773 | 90.86609 | 33885 ft | 415 kts | 275° |
| 2026-05-06 16:47 | 25.53601 | 90.80294 | 33878 ft | 415 kts | 275° |
| 2026-05-06 16:47 | 25.54432 | 90.73972 | 33886 ft | 415 kts | 275° |
| 2026-05-06 16:48 | 25.55242 | 90.67691 | 33869 ft | 414 kts | 275° |
| 2026-05-06 16:48 | 25.56050 | 90.61378 | 33875 ft | 414 kts | 275° |
| 2026-05-06 16:49 | 25.56872 | 90.55066 | 33875 ft | 414 kts | 275° |
| 2026-05-06 16:49 | 25.57692 | 90.48755 | 33873 ft | 414 kts | 275° |
| 2026-05-06 16:50 | 25.58504 | 90.42442 | 33864 ft | 414 kts | 275° |
| 2026-05-06 16:50 | 25.59315 | 90.36142 | 33869 ft | 413 kts | 274° |
| 2026-05-06 16:51 | 25.60109 | 90.29836 | 33863 ft | 412 kts | 274° |
| 2026-05-06 16:51 | 25.60908 | 90.23548 | 33861 ft | 412 kts | 274° |
| 2026-05-06 16:52 | 25.61724 | 90.17292 | 33854 ft | 412 kts | 275° |
| 2026-05-06 16:52 | 25.62534 | 90.11008 | 33855 ft | 412 kts | 274° |
| 2026-05-06 16:53 | 25.63329 | 90.04708 | 33854 ft | 412 kts | 274° |
| 2026-05-06 16:53 | 25.64122 | 89.98424 | 33851 ft | 411 kts | 274° |
| 2026-05-06 16:54 | 25.64909 | 89.92149 | 33846 ft | 411 kts | 274° |
| 2026-05-06 16:54 | 25.65689 | 89.85876 | 33847 ft | 411 kts | 274° |
| 2026-05-06 16:55 | 25.66472 | 89.79602 | 33847 ft | 411 kts | 274° |
| 2026-05-06 16:55 | 25.67247 | 89.73367 | 33850 ft | 411 kts | 274° |
| 2026-05-06 16:56 | 25.68023 | 89.67094 | 33852 ft | 410 kts | 274° |
| 2026-05-06 16:56 | 25.68794 | 89.60822 | 33851 ft | 410 kts | 274° |
| 2026-05-06 16:57 | 25.69561 | 89.54555 | 33846 ft | 410 kts | 274° |
| 2026-05-06 16:57 | 25.70324 | 89.48277 | 33842 ft | 410 kts | 274° |
| 2026-05-06 16:58 | 25.71091 | 89.42001 | 33840 ft | 410 kts | 274° |
| 2026-05-06 16:58 | 25.71849 | 89.35747 | 33835 ft | 410 kts | 274° |
| 2026-05-06 16:59 | 25.72603 | 89.29472 | 33841 ft | 410 kts | 274° |
| 2026-05-06 16:59 | 25.73359 | 89.23189 | 33852 ft | 410 kts | 274° |
| 2026-05-06 17:00 | 25.74106 | 89.16969 | 33855 ft | 410 kts | 274° |
| 2026-05-06 17:00 | 25.74862 | 89.10691 | 33841 ft | 410 kts | 274° |
| 2026-05-06 17:01 | 25.75614 | 89.04417 | 33842 ft | 410 kts | 274° |
| 2026-05-06 17:01 | 25.76357 | 88.98146 | 33843 ft | 410 kts | 274° |
| 2026-05-06 17:02 | 25.77096 | 88.91881 | 33844 ft | 410 kts | 274° |
| 2026-05-06 17:02 | 25.77712 | 88.86671 | 33840 ft | 410 kts | 274° |
| 2026-05-06 17:03 | 25.78446 | 88.80408 | 33839 ft | 409 kts | 274° |
| 2026-05-06 17:03 | 25.79181 | 88.74133 | 33839 ft | 409 kts | 274° |
| 2026-05-06 17:04 | 25.79909 | 88.67881 | 33836 ft | 409 kts | 274° |
| 2026-05-06 17:04 | 25.80639 | 88.61602 | 33831 ft | 409 kts | 274° |
| 2026-05-06 17:05 | 25.81360 | 88.55378 | 33837 ft | 409 kts | 274° |
| 2026-05-06 17:05 | 25.82077 | 88.49113 | 33845 ft | 409 kts | 274° |
| 2026-05-06 17:06 | 25.82801 | 88.42833 | 33837 ft | 409 kts | 274° |
| 2026-05-06 17:06 | 25.83513 | 88.36560 | 33840 ft | 410 kts | 274° |
| 2026-05-06 17:07 | 25.84234 | 88.30264 | 33836 ft | 410 kts | 274° |
| 2026-05-06 17:07 | 25.84944 | 88.24013 | 33842 ft | 410 kts | 274° |
| 2026-05-06 17:08 | 25.85653 | 88.17727 | 33835 ft | 410 kts | 274° |
| 2026-05-06 17:08 | 25.86363 | 88.11428 | 33835 ft | 411 kts | 274° |
| 2026-05-06 17:09 | 25.87068 | 88.05132 | 33834 ft | 411 kts | 273° |
| 2026-05-06 17:09 | 25.87770 | 87.98834 | 33831 ft | 411 kts | 273° |
| 2026-05-06 17:10 | 25.88467 | 87.92547 | 33830 ft | 411 kts | 273° |
| 2026-05-06 17:10 | 25.89164 | 87.86246 | 33836 ft | 411 kts | 273° |
| 2026-05-06 17:11 | 25.89861 | 87.79954 | 33830 ft | 411 kts | 273° |
| 2026-05-06 17:11 | 25.90547 | 87.73704 | 33836 ft | 410 kts | 273° |
| 2026-05-06 17:12 | 25.91237 | 87.67404 | 33833 ft | 410 kts | 273° |
| 2026-05-06 17:12 | 25.91914 | 87.61111 | 33833 ft | 410 kts | 273° |
| 2026-05-06 17:13 | 25.92589 | 87.54815 | 33836 ft | 410 kts | 273° |
| 2026-05-06 17:13 | 25.93270 | 87.48518 | 33836 ft | 410 kts | 273° |
| 2026-05-06 17:14 | 25.93940 | 87.42233 | 33829 ft | 410 kts | 273° |
| 2026-05-06 17:14 | 25.94610 | 87.35942 | 33831 ft | 410 kts | 273° |
| 2026-05-06 17:15 | 25.95289 | 87.29651 | 33830 ft | 410 kts | 273° |
| 2026-05-06 17:15 | 25.95968 | 87.23361 | 33827 ft | 410 kts | 273° |
| 2026-05-06 17:16 | 25.96656 | 87.17114 | 33828 ft | 411 kts | 275° |
| 2026-05-06 17:16 | 25.98000 | 87.10906 | 33829 ft | 414 kts | 280° |
| 2026-05-06 17:17 | 25.99526 | 87.04731 | 33826 ft | 414 kts | 281° |
| 2026-05-06 17:17 | 26.01048 | 86.98548 | 33829 ft | 414 kts | 280° |
| 2026-05-06 17:18 | 26.02558 | 86.92357 | 33825 ft | 414 kts | 280° |
| 2026-05-06 17:18 | 26.04052 | 86.86165 | 33828 ft | 414 kts | 280° |
| 2026-05-06 17:19 | 26.05524 | 86.79978 | 33825 ft | 414 kts | 280° |
| 2026-05-06 17:19 | 26.07027 | 86.73780 | 33827 ft | 415 kts | 280° |
| 2026-05-06 17:20 | 26.08535 | 86.67583 | 33823 ft | 415 kts | 280° |
| 2026-05-06 17:20 | 26.10025 | 86.61427 | 33827 ft | 415 kts | 280° |
| 2026-05-06 17:21 | 26.11529 | 86.55196 | 33821 ft | 415 kts | 280° |
| 2026-05-06 17:21 | 26.13018 | 86.49026 | 33829 ft | 415 kts | 280° |
| 2026-05-06 17:22 | 26.14517 | 86.42774 | 33829 ft | 418 kts | 280° |
| 2026-05-06 17:22 | 26.16010 | 86.36518 | 33834 ft | 422 kts | 280° |
| 2026-05-06 17:23 | 26.17515 | 86.30196 | 33832 ft | 422 kts | 280° |
| 2026-05-06 17:23 | 26.19023 | 86.23865 | 33837 ft | 423 kts | 280° |
| 2026-05-06 17:24 | 26.20527 | 86.17532 | 33891 ft | 423 kts | 279° |
| 2026-05-06 17:24 | 26.22028 | 86.11200 | 33855 ft | 423 kts | 279° |
| 2026-05-06 17:25 | 26.23526 | 86.04857 | 33843 ft | 424 kts | 279° |
| 2026-05-06 17:25 | 26.25019 | 85.98547 | 33849 ft | 424 kts | 279° |
| 2026-05-06 17:26 | 26.26512 | 85.92202 | 33851 ft | 424 kts | 279° |
| 2026-05-06 17:26 | 26.28009 | 85.85839 | 33849 ft | 424 kts | 279° |
| 2026-05-06 17:27 | 26.29499 | 85.79488 | 33856 ft | 424 kts | 279° |
| 2026-05-06 17:27 | 26.30985 | 85.73129 | 33851 ft | 424 kts | 279° |
| 2026-05-06 17:28 | 26.32471 | 85.66771 | 33859 ft | 424 kts | 279° |
| 2026-05-06 17:28 | 26.34071 | 85.60444 | 33864 ft | 425 kts | 280° |
| 2026-05-06 17:29 | 26.35697 | 85.54147 | 33861 ft | 425 kts | 280° |
| 2026-05-06 17:29 | 26.37324 | 85.47823 | 33861 ft | 424 kts | 280° |
| 2026-05-06 17:30 | 26.38949 | 85.41477 | 33872 ft | 424 kts | 281° |
| 2026-05-06 17:30 | 26.40572 | 85.35159 | 33878 ft | 424 kts | 281° |
| 2026-05-06 17:31 | 26.42193 | 85.28827 | 33873 ft | 424 kts | 281° |
| 2026-05-06 17:31 | 26.43810 | 85.22493 | 33878 ft | 424 kts | 280° |
| 2026-05-06 17:32 | 26.45417 | 85.16140 | 33877 ft | 425 kts | 280° |
| 2026-05-06 17:32 | 26.47010 | 85.09799 | 33881 ft | 425 kts | 280° |
| 2026-05-06 17:33 | 26.48611 | 85.03483 | 33881 ft | 425 kts | 281° |
| 2026-05-06 17:33 | 26.50232 | 84.97123 | 33880 ft | 426 kts | 281° |
| 2026-05-06 17:34 | 26.51849 | 84.90756 | 33875 ft | 426 kts | 281° |
| 2026-05-06 17:34 | 26.53464 | 84.84392 | 33879 ft | 426 kts | 281° |
| 2026-05-06 17:35 | 26.55069 | 84.78019 | 33875 ft | 426 kts | 281° |
| 2026-05-06 17:35 | 26.56672 | 84.71649 | 33869 ft | 426 kts | 281° |
| 2026-05-06 17:36 | 26.59070 | 84.62072 | 33867 ft | 427 kts | 281° |
| 2026-05-06 17:36 | 26.60670 | 84.55676 | 33865 ft | 428 kts | 281° |
| 2026-05-06 17:37 | 26.62266 | 84.49273 | 33868 ft | 427 kts | 281° |
| 2026-05-06 17:37 | 26.63850 | 84.42912 | 33873 ft | 427 kts | 281° |
| 2026-05-06 17:38 | 26.65436 | 84.36519 | 33860 ft | 427 kts | 281° |
| 2026-05-06 17:38 | 26.67057 | 84.30120 | 33864 ft | 427 kts | 281° |
| 2026-05-06 17:39 | 26.68673 | 84.23718 | 33860 ft | 427 kts | 281° |
| 2026-05-06 17:39 | 26.70304 | 84.17330 | 33859 ft | 427 kts | 281° |
| 2026-05-06 17:40 | 26.71914 | 84.10928 | 33858 ft | 427 kts | 281° |
| 2026-05-06 17:40 | 26.73533 | 84.04521 | 33858 ft | 428 kts | 281° |
| 2026-05-06 17:41 | 26.75158 | 83.98118 | 33862 ft | 428 kts | 281° |
| 2026-05-06 17:41 | 26.76756 | 83.91753 | 33852 ft | 428 kts | 281° |
| 2026-05-06 17:42 | 26.78270 | 83.85309 | 33851 ft | 427 kts | 280° |
| 2026-05-06 17:42 | 26.79759 | 83.78866 | 33852 ft | 428 kts | 280° |
| 2026-05-06 17:43 | 26.81246 | 83.72411 | 33851 ft | 428 kts | 280° |
| 2026-05-06 17:43 | 26.82731 | 83.65949 | 33847 ft | 428 kts | 280° |
| 2026-05-06 17:44 | 26.84212 | 83.59483 | 33848 ft | 428 kts | 280° |
| 2026-05-06 17:44 | 26.85693 | 83.53028 | 33845 ft | 428 kts | 280° |
| 2026-05-06 17:45 | 26.87158 | 83.46612 | 33844 ft | 428 kts | 280° |
| 2026-05-06 17:45 | 26.88631 | 83.40139 | 33845 ft | 428 kts | 280° |
| 2026-05-06 17:46 | 26.90101 | 83.33674 | 33841 ft | 428 kts | 280° |
| 2026-05-06 17:46 | 26.91564 | 83.27213 | 33842 ft | 428 kts | 280° |
| 2026-05-06 17:47 | 26.93019 | 83.20731 | 33837 ft | 428 kts | 280° |
| 2026-05-06 17:47 | 26.94471 | 83.14248 | 33833 ft | 428 kts | 280° |
| 2026-05-06 17:48 | 26.95941 | 83.07770 | 33829 ft | 429 kts | 281° |
| 2026-05-06 17:48 | 26.97404 | 83.01333 | 33831 ft | 429 kts | 281° |
| 2026-05-06 17:49 | 26.98833 | 82.94843 | 33829 ft | 429 kts | 280° |
| 2026-05-06 17:49 | 27.00235 | 82.88350 | 33829 ft | 429 kts | 280° |
| 2026-05-06 17:50 | 27.01406 | 82.82935 | 33823 ft | 429 kts | 280° |
| 2026-05-06 17:50 | 27.03037 | 82.75384 | 33825 ft | 428 kts | 280° |
| 2026-05-06 17:51 | 27.04437 | 82.68883 | 33830 ft | 428 kts | 280° |
| 2026-05-06 17:51 | 27.05599 | 82.63473 | 33828 ft | 428 kts | 280° |
| 2026-05-06 17:52 | 27.06993 | 82.56970 | 33826 ft | 428 kts | 280° |
| 2026-05-06 17:52 | 27.08381 | 82.50470 | 33828 ft | 428 kts | 280° |
| 2026-05-06 17:53 | 27.09769 | 82.43963 | 33827 ft | 428 kts | 281° |
| 2026-05-06 17:53 | 27.11156 | 82.37443 | 33828 ft | 428 kts | 281° |
| 2026-05-06 17:54 | 27.12537 | 82.30933 | 33825 ft | 428 kts | 281° |
| 2026-05-06 17:54 | 27.13906 | 82.24473 | 33824 ft | 429 kts | 281° |
| 2026-05-06 17:55 | 27.15295 | 82.17954 | 33822 ft | 429 kts | 281° |
| 2026-05-06 17:55 | 27.16763 | 82.11450 | 33828 ft | 429 kts | 281° |
| 2026-05-06 17:56 | 27.18225 | 82.04946 | 33875 ft | 430 kts | 281° |
| 2026-05-06 17:56 | 27.19669 | 81.98475 | 33991 ft | 429 kts | 281° |
| 2026-05-06 17:57 | 27.21116 | 81.91975 | 34131 ft | 428 kts | 281° |
| 2026-05-06 17:57 | 27.22558 | 81.85483 | 34264 ft | 428 kts | 281° |
| 2026-05-06 17:58 | 27.23995 | 81.79003 | 34400 ft | 427 kts | 281° |
| 2026-05-06 17:58 | 27.25428 | 81.72533 | 34537 ft | 426 kts | 281° |
| 2026-05-06 17:59 | 27.26852 | 81.66074 | 34673 ft | 425 kts | 281° |
| 2026-05-06 17:59 | 27.28272 | 81.59634 | 34810 ft | 424 kts | 281° |
| 2026-05-06 18:00 | 27.29676 | 81.53238 | 34941 ft | 423 kts | 281° |
| 2026-05-06 18:00 | 27.31082 | 81.46809 | 35088 ft | 422 kts | 281° |
| 2026-05-06 18:01 | 27.32483 | 81.40401 | 35229 ft | 421 kts | 281° |
| 2026-05-06 18:01 | 27.33879 | 81.34006 | 35370 ft | 420 kts | 281° |
| 2026-05-06 18:02 | 27.35269 | 81.27620 | 35508 ft | 419 kts | 281° |
| 2026-05-06 18:02 | 27.36641 | 81.21293 | 35652 ft | 418 kts | 281° |
| 2026-05-06 18:03 | 27.38016 | 81.14952 | 35794 ft | 416 kts | 281° |
| 2026-05-06 18:03 | 27.39386 | 81.08604 | 35833 ft | 417 kts | 281° |
| 2026-05-06 18:04 | 27.40756 | 81.02244 | 35828 ft | 419 kts | 281° |
| 2026-05-06 18:04 | 27.42132 | 80.95850 | 35829 ft | 420 kts | 281° |
| 2026-05-06 18:05 | 27.43490 | 80.89514 | 35832 ft | 420 kts | 281° |
| 2026-05-06 18:05 | 27.44864 | 80.83090 | 35826 ft | 420 kts | 281° |
| 2026-05-06 18:06 | 27.46230 | 80.76684 | 35826 ft | 420 kts | 281° |
| 2026-05-06 18:06 | 27.47593 | 80.70290 | 35825 ft | 420 kts | 281° |
| 2026-05-06 18:07 | 27.48953 | 80.63888 | 35818 ft | 420 kts | 282° |
| 2026-05-06 18:07 | 27.50310 | 80.57484 | 35815 ft | 420 kts | 282° |
| 2026-05-06 18:08 | 27.51665 | 80.51080 | 35817 ft | 420 kts | 282° |
| 2026-05-06 18:08 | 27.53017 | 80.44662 | 35815 ft | 421 kts | 282° |
| 2026-05-06 18:09 | 27.54366 | 80.38247 | 35815 ft | 421 kts | 282° |
| 2026-05-06 18:09 | 27.55706 | 80.31868 | 35810 ft | 421 kts | 282° |
| 2026-05-06 18:10 | 27.57046 | 80.25443 | 35807 ft | 421 kts | 282° |
| 2026-05-06 18:10 | 27.58392 | 80.19008 | 35808 ft | 421 kts | 282° |
| 2026-05-06 18:11 | 27.59732 | 80.12583 | 35807 ft | 421 kts | 282° |
| 2026-05-06 18:11 | 27.61071 | 80.06148 | 35810 ft | 421 kts | 282° |
| 2026-05-06 18:12 | 27.62409 | 79.99702 | 35807 ft | 422 kts | 282° |
| 2026-05-06 18:12 | 27.63739 | 79.93256 | 35800 ft | 422 kts | 282° |
| 2026-05-06 18:13 | 27.65068 | 79.86807 | 35804 ft | 422 kts | 282° |
| 2026-05-06 18:13 | 27.66385 | 79.80415 | 35803 ft | 421 kts | 282° |
| 2026-05-06 18:14 | 27.67710 | 79.73981 | 35801 ft | 421 kts | 282° |
| 2026-05-06 18:14 | 27.69082 | 79.67562 | 35793 ft | 421 kts | 285° |
| 2026-05-06 18:15 | 27.71686 | 79.61624 | 35800 ft | 426 kts | 300° |
| 2026-05-06 18:15 | 27.75001 | 79.56073 | 35801 ft | 426 kts | 301° |
| 2026-05-06 18:16 | 27.78299 | 79.50511 | 35796 ft | 425 kts | 300° |
| 2026-05-06 18:16 | 27.81576 | 79.44942 | 35792 ft | 425 kts | 300° |
| 2026-05-06 18:17 | 27.84827 | 79.39401 | 35794 ft | 426 kts | 300° |
| 2026-05-06 18:17 | 27.88099 | 79.33821 | 35792 ft | 426 kts | 300° |
| 2026-05-06 18:18 | 27.91371 | 79.28232 | 35793 ft | 426 kts | 300° |
| 2026-05-06 18:18 | 27.94637 | 79.22651 | 35791 ft | 425 kts | 300° |
| 2026-05-06 18:19 | 27.97874 | 79.17111 | 35789 ft | 417 kts | 300° |
| 2026-05-06 18:19 | 27.99467 | 79.14384 | 35604 ft | 413 kts | 300° |
| 2026-05-06 18:19 | 28.01057 | 79.11655 | 35299 ft | 415 kts | 300° |
| 2026-05-06 18:20 | 28.02646 | 79.08924 | 35047 ft | 416 kts | 300° |
| 2026-05-06 18:20 | 28.04242 | 79.06183 | 34816 ft | 417 kts | 300° |
| 2026-05-06 18:20 | 28.05842 | 79.03434 | 34589 ft | 418 kts | 300° |
| 2026-05-06 18:20 | 28.07443 | 79.00682 | 34369 ft | 419 kts | 300° |
| 2026-05-06 18:21 | 28.09043 | 78.97931 | 34152 ft | 419 kts | 300° |
| 2026-05-06 18:21 | 28.10590 | 78.95128 | 33928 ft | 418 kts | 296° |
| 2026-05-06 18:21 | 28.11902 | 78.92233 | 33694 ft | 418 kts | 294° |
| 2026-05-06 18:21 | 28.13188 | 78.89275 | 33434 ft | 419 kts | 294° |
| 2026-05-06 18:22 | 28.14472 | 78.86305 | 33183 ft | 420 kts | 294° |
| 2026-05-06 18:22 | 28.15762 | 78.83329 | 32928 ft | 421 kts | 294° |
| 2026-05-06 18:22 | 28.17057 | 78.80342 | 32677 ft | 422 kts | 294° |
| 2026-05-06 18:22 | 28.18356 | 78.77351 | 32424 ft | 424 kts | 294° |
| 2026-05-06 18:23 | 28.19658 | 78.74348 | 32179 ft | 425 kts | 294° |
| 2026-05-06 18:23 | 28.20960 | 78.71343 | 31629 ft | 424 kts | 295° |
| 2026-05-06 18:23 | 28.22259 | 78.68347 | 30833 ft | 423 kts | 295° |
| 2026-05-06 18:23 | 28.23555 | 78.65357 | 30009 ft | 422 kts | 295° |
| 2026-05-06 18:24 | 28.24853 | 78.62361 | 29017 ft | 424 kts | 295° |
| 2026-05-06 18:24 | 28.26152 | 78.59355 | 28055 ft | 426 kts | 295° |
| 2026-05-06 18:24 | 28.27460 | 78.56328 | 27073 ft | 428 kts | 295° |
| 2026-05-06 18:24 | 28.28776 | 78.53280 | 26075 ft | 431 kts | 295° |
| 2026-05-06 18:25 | 28.30096 | 78.50217 | 25102 ft | 434 kts | 296° |
| 2026-05-06 18:25 | 28.31426 | 78.47131 | 24174 ft | 435 kts | 296° |
| 2026-05-06 18:25 | 28.32753 | 78.44051 | 23364 ft | 434 kts | 296° |
| 2026-05-06 18:25 | 28.34079 | 78.40965 | 22596 ft | 448 kts | 296° |
| 2026-05-06 18:26 | 28.35436 | 78.37813 | 21971 ft | 439 kts | 296° |
| 2026-05-06 18:26 | 28.36756 | 78.34736 | 21509 ft | 427 kts | 296° |
| 2026-05-06 18:26 | 28.38041 | 78.31744 | 21092 ft | 415 kts | 296° |
| 2026-05-06 18:26 | 28.39297 | 78.28817 | 20555 ft | 412 kts | 296° |
| 2026-05-06 18:27 | 28.40547 | 78.25906 | 19900 ft | 408 kts | 296° |
| 2026-05-06 18:27 | 28.41784 | 78.23021 | 19326 ft | 404 kts | 296° |
| 2026-05-06 18:27 | 28.43009 | 78.20160 | 18706 ft | 401 kts | 296° |
| 2026-05-06 18:27 | 28.44220 | 78.17331 | 18033 ft | 394 kts | 296° |
| 2026-05-06 18:28 | 28.45411 | 78.14547 | 17247 ft | 391 kts | 296° |
| 2026-05-06 18:28 | 28.46591 | 78.11785 | 16582 ft | 387 kts | 296° |
| 2026-05-06 18:28 | 28.47761 | 78.09038 | 15989 ft | 383 kts | 296° |
| 2026-05-06 18:28 | 28.48916 | 78.06332 | 15445 ft | 379 kts | 296° |
| 2026-05-06 18:29 | 28.50062 | 78.03644 | 14913 ft | 375 kts | 296° |
| 2026-05-06 18:29 | 28.51193 | 78.00990 | 14456 ft | 372 kts | 295° |
| 2026-05-06 18:29 | 28.52298 | 77.98343 | 13886 ft | 370 kts | 292° |
| 2026-05-06 18:29 | 28.52902 | 77.95548 | 13339 ft | 361 kts | 275° |
| 2026-05-06 18:30 | 28.52664 | 77.92791 | 13038 ft | 348 kts | 261° |
| 2026-05-06 18:30 | 28.52133 | 77.90134 | 12833 ft | 333 kts | 259° |
| 2026-05-06 18:30 | 28.51664 | 77.87628 | 12642 ft | 317 kts | 261° |
| 2026-05-06 18:30 | 28.51262 | 77.85223 | 12477 ft | 301 kts | 262° |
| 2026-05-06 18:31 | 28.50909 | 77.82965 | 12316 ft | 287 kts | 263° |
| 2026-05-06 18:31 | 28.50582 | 77.80780 | 12173 ft | 273 kts | 263° |
| 2026-05-06 18:31 | 28.50277 | 77.78707 | 12036 ft | 260 kts | 263° |
| 2026-05-06 18:31 | 28.49987 | 77.76706 | 11715 ft | 254 kts | 263° |
| 2026-05-06 18:32 | 28.49702 | 77.74728 | 11281 ft | 254 kts | 263° |
| 2026-05-06 18:32 | 28.49416 | 77.72748 | 10848 ft | 253 kts | 263° |
| 2026-05-06 18:32 | 28.49131 | 77.70773 | 10307 ft | 256 kts | 263° |
| 2026-05-06 18:32 | 28.48847 | 77.68775 | 9934 ft | 254 kts | 263° |
| 2026-05-06 18:33 | 28.48567 | 77.66824 | 9539 ft | 253 kts | 262° |
| 2026-05-06 18:33 | 28.48281 | 77.64847 | 9031 ft | 255 kts | 262° |
| 2026-05-06 18:33 | 28.47994 | 77.62872 | 8590 ft | 255 kts | 262° |
| 2026-05-06 18:33 | 28.47706 | 77.60897 | 8193 ft | 253 kts | 262° |
| 2026-05-06 18:34 | 28.47420 | 77.58925 | 7779 ft | 252 kts | 262° |
| 2026-05-06 18:34 | 28.47134 | 77.56957 | 7367 ft | 252 kts | 262° |
| 2026-05-06 18:34 | 28.46848 | 77.54989 | 6948 ft | 253 kts | 262° |
| 2026-05-06 18:34 | 28.46578 | 77.53023 | 6629 ft | 249 kts | 266° |
| 2026-05-06 18:35 | 28.46646 | 77.51081 | 6286 ft | 245 kts | 280° |
| 2026-05-06 18:35 | 28.46950 | 77.49180 | 5928 ft | 243 kts | 282° |
| 2026-05-06 18:35 | 28.47264 | 77.47294 | 5548 ft | 242 kts | 282° |
| 2026-05-06 18:35 | 28.47569 | 77.45418 | 5197 ft | 241 kts | 282° |
| 2026-05-06 18:36 | 28.47869 | 77.43540 | 4839 ft | 241 kts | 282° |
| 2026-05-06 18:36 | 28.48165 | 77.41670 | 4476 ft | 240 kts | 282° |
| 2026-05-06 18:36 | 28.48458 | 77.39801 | 4114 ft | 240 kts | 281° |
| 2026-05-06 18:36 | 28.48746 | 77.37948 | 3757 ft | 240 kts | 281° |
| 2026-05-06 18:37 | 28.48941 | 77.36697 | 3513 ft | 239 kts | 281° |
| 2026-05-06 18:37 | 28.49231 | 77.34829 | 3161 ft | 239 kts | 281° |
| 2026-05-06 18:37 | 28.49610 | 77.32383 | 2987 ft | 238 kts | 281° |
| 2026-05-06 18:37 | 28.49908 | 77.30534 | 2944 ft | 236 kts | 283° |
| 2026-05-06 18:38 | 28.50289 | 77.28724 | 2669 ft | 236 kts | 285° |
| 2026-05-06 18:38 | 28.50707 | 77.26910 | 2581 ft | 237 kts | 284° |
| 2026-05-06 18:38 | 28.50967 | 77.25709 | 2575 ft | 232 kts | 284° |
| 2026-05-06 18:38 | 28.51333 | 77.24005 | 2558 ft | 213 kts | 284° |
| 2026-05-06 18:39 | 28.51682 | 77.22374 | 2568 ft | 211 kts | 285° |
| 2026-05-06 18:39 | 28.52031 | 77.20745 | 2557 ft | 212 kts | 284° |
| 2026-05-06 18:39 | 28.52378 | 77.19123 | 2344 ft | 207 kts | 284° |
| 2026-05-06 18:40 | 28.53027 | 77.16088 | 1843 ft | 189 kts | 284° |
| 2026-05-06 18:40 | 28.53325 | 77.14697 | 1625 ft | 170 kts | 284° |
| 2026-05-06 18:40 | 28.53586 | 77.13477 | 1368 ft | 148 kts | 285° |
| 2026-05-06 18:40 | 28.53827 | 77.12351 | 1155 ft | 145 kts | 285° |
| 2026-05-06 18:41 | 28.54065 | 77.11236 | 964 ft | 145 kts | 286° |
| 2026-05-06 18:41 | 28.54301 | 77.10131 | 789 ft | 146 kts | 285° |
| 2026-05-06 18:41 | 28.54526 | 77.09091 | 755 ft | 116 kts | 285° |
| 2026-05-06 18:41 | 28.54675 | 77.08403 | 757 ft | 66 kts | 283° |
| 2026-05-06 18:42 | 28.54746 | 77.08093 | 754 ft | 23 kts | 294° |
| 2026-05-06 18:42 | 28.54845 | 77.07945 | 754 ft | 25 kts | 313° |
| 2026-05-06 18:42 | 28.54946 | 77.07825 | 755 ft | 12 kts | 314° |
| 2026-05-06 18:42 | 28.55010 | 77.07749 | 756 ft | 14 kts | 314° |
| 2026-05-06 18:43 | 28.55105 | 77.07719 | 755 ft | 16 kts | 33° |
| 2026-05-06 18:43 | 28.55115 | 77.07838 | 754 ft | 15 kts | 90° |
| 2026-05-06 18:43 | 28.55202 | 77.07864 | 755 ft | 17 kts | 318° |
| 2026-05-06 18:43 | 28.55282 | 77.07762 | 754 ft | 19 kts | 7° |
| 2026-05-06 18:44 | 28.55418 | 77.07800 | 754 ft | 21 kts | 15° |
| 2026-05-06 18:44 | 28.55564 | 77.07844 | 752 ft | 17 kts | 15° |
| 2026-05-06 18:44 | 28.55619 | 77.07933 | 752 ft | 16 kts | 78° |
| 2026-05-06 18:44 | 28.55661 | 77.08014 | 752 ft | 5 kts | 19° |
| 2026-05-06 18:45 | 28.55668 | 77.08015 | 753 ft | 1 kts | 7° |
| 2026-05-06 18:45 | 28.55682 | 77.08014 | 753 ft | 3 kts | 337° |
| 2026-05-06 18:45 | 28.55710 | 77.07998 | 756 ft | 6 kts | 329° |
| 2026-05-06 18:45 | 28.55723 | 77.07990 | 754 ft | 0 kts | 329° |